Time;durP1;ratioP1;P1;durP2;ratioP2;P2;SDS_P1;SDS_P2;PMS_P1;PMS_P2;Temp;Humidity;BMP_temperature;BMP_pressure;BME280_temperature;BME280_humidity;BME280_pressure;Samples;Min_cycle;Max_cycle;Signal;HPM_P1;HPM_P2
2021/04/14 00:01:56;;;;;;;0.10;0.10;;;4.80;99.90;;;;;;5009813;28;20025;-89
2021/04/14 00:04:22;;;;;;;0.10;0.10;;;5.10;99.90;;;;;;5008324;28;20022;-88
2021/04/14 00:06:48;;;;;;;0.28;0.28;;;4.70;99.90;;;;;;5008356;28;20042;-88
2021/04/14 00:09:14;;;;;;;0.30;0.30;;;4.80;99.90;;;;;;5008603;28;20137;-88
2021/04/14 00:11:40;;;;;;;0.10;0.10;;;4.40;99.90;;;;;;5008943;28;20108;-89
2021/04/14 00:14:07;;;;;;;0.10;0.10;;;4.50;99.90;;;;;;5007085;28;20117;-88
2021/04/14 00:16:34;;;;;;;0.20;0.20;;;4.60;99.90;;;;;;5006580;28;20391;-88
2021/04/14 00:19:00;;;;;;;0.10;0.10;;;4.50;99.90;;;;;;5008709;28;20029;-88
2021/04/14 00:21:27;;;;;;;0.38;0.35;;;4.90;99.90;;;;;;5009093;28;20112;-88
2021/04/14 00:23:54;;;;;;;0.17;0.17;;;4.90;99.90;;;;;;5008150;28;20045;-89
2021/04/14 00:26:20;;;;;;;0.25;0.25;;;4.90;99.90;;;;;;5007307;28;20121;-89
2021/04/14 00:28:46;;;;;;;0.17;0.17;;;4.60;99.90;;;;;;4992319;28;20113;-89
2021/04/14 00:31:13;;;;;;;0.30;0.30;;;4.80;99.90;;;;;;4988397;28;20568;-89
2021/04/14 00:33:39;;;;;;;;;;;4.70;99.90;;;;;;4990766;28;20036;-90
2021/04/14 00:36:05;;;;;;;0.30;0.30;;;4.70;99.90;;;;;;4989948;28;20007;-90
2021/04/14 00:38:32;;;;;;;0.10;0.10;;;4.70;99.90;;;;;;4989087;28;20117;-90
2021/04/14 00:41:01;;;;;;;0.10;0.10;;;4.70;99.90;;;;;;5005557;28;20104;-90
2021/04/14 00:43:29;;;;;;;1.40;0.95;;;4.50;99.90;;;;;;5003075;28;20022;-90
2021/04/14 00:45:56;;;;;;;0.30;0.30;;;4.50;99.90;;;;;;5007985;28;20498;-90
2021/04/14 00:48:22;;;;;;;0.10;0.10;;;4.80;99.90;;;;;;5009075;28;20540;-89
2021/04/14 00:50:49;;;;;;;0.32;0.32;;;4.70;99.90;;;;;;5006863;28;20768;-89
2021/04/14 00:53:16;;;;;;;0.20;0.20;;;4.50;99.90;;;;;;5003187;28;20046;-89
2021/04/14 00:55:42;;;;;;;0.10;0.10;;;4.50;99.90;;;;;;5008538;28;20083;-90
2021/04/14 00:58:09;;;;;;;0.35;0.35;;;4.60;99.90;;;;;;5008301;28;20030;-90
2021/04/14 01:00:37;;;;;;;;;;;4.50;99.90;;;;;;5008249;28;20037;-91
2021/04/14 01:03:08;;;;;;;0.10;0.10;;;4.60;99.90;;;;;;5008329;28;19910;-90
2021/04/14 01:05:37;;;;;;;0.20;0.20;;;4.50;99.90;;;;;;5008321;28;20059;-90
2021/04/14 01:08:07;;;;;;;0.10;0.10;;;4.50;99.90;;;;;;5009329;28;20096;-91
2021/04/14 01:10:33;;;;;;;0.10;0.10;;;4.20;99.90;;;;;;5004154;28;20038;-90
2021/04/14 01:13:00;;;;;;;0.20;0.20;;;4.40;99.90;;;;;;5009216;28;20028;-90
2021/04/14 01:15:32;;;;;;;0.22;0.22;;;4.30;99.90;;;;;;5007963;28;20045;-90
2021/04/14 01:17:58;;;;;;;0.10;0.10;;;4.20;99.90;;;;;;5009426;28;20030;-90
2021/04/14 01:20:25;;;;;;;0.10;0.10;;;3.90;99.90;;;;;;5007319;28;20038;-90
2021/04/14 01:22:51;;;;;;;;;;;4.20;99.90;;;;;;4992535;28;20479;-91
2021/04/14 01:25:25;;;;;;;0.30;0.30;;;4.10;99.90;;;;;;4991017;28;19992;-89
2021/04/14 01:27:51;;;;;;;0.20;0.20;;;4.10;99.90;;;;;;5007374;28;20029;-89
2021/04/14 01:30:22;;;;;;;0.13;0.13;;;4.20;99.90;;;;;;5008713;28;20046;-88
2021/04/14 01:32:48;;;;;;;0.13;0.13;;;4.30;99.90;;;;;;5007321;28;20080;-90
2021/04/14 01:35:15;;;;;;;0.10;0.10;;;4.30;99.90;;;;;;5008616;28;20037;-90
2021/04/14 01:37:41;;;;;;;0.10;0.10;;;4.30;99.90;;;;;;5007174;28;20022;-91
2021/04/14 01:40:09;;;;;;;0.28;0.28;;;4.30;99.90;;;;;;5008321;28;20026;-90
2021/04/14 01:42:35;;;;;;;0.10;0.10;;;4.20;99.90;;;;;;5008049;28;20104;-89
2021/04/14 01:45:02;;;;;;;0.10;0.10;;;4.00;99.90;;;;;;5006725;28;20102;-90
2021/04/14 01:47:27;;;;;;;0.20;0.20;;;4.30;99.90;;;;;;4994104;28;20552;-89
2021/04/14 01:49:53;;;;;;;0.10;0.10;;;4.20;99.90;;;;;;5012706;28;20109;-90
2021/04/14 01:52:19;;;;;;;0.20;0.20;;;4.30;99.90;;;;;;5009879;28;20436;-89
2021/04/14 01:54:44;;;;;;;0.10;0.10;;;4.40;99.90;;;;;;5012301;28;20069;-89
2021/04/14 01:57:10;;;;;;;0.25;0.25;;;3.90;99.90;;;;;;5011032;28;20060;-89
2021/04/14 01:59:36;;;;;;;0.13;0.13;;;4.00;99.90;;;;;;5008464;28;20026;-89
2021/04/14 02:02:04;;;;;;;0.20;0.20;;;4.00;99.90;;;;;;5012256;28;20018;-90
2021/04/14 02:04:30;;;;;;;0.25;0.25;;;4.10;99.90;;;;;;5011767;28;20053;-89
2021/04/14 02:06:56;;;;;;;0.20;0.20;;;4.10;99.90;;;;;;5010811;28;20532;-89
2021/04/14 02:09:22;;;;;;;0.10;0.10;;;3.90;99.90;;;;;;5011520;28;20057;-89
2021/04/14 02:11:47;;;;;;;0.10;0.10;;;3.70;99.90;;;;;;5009286;28;20083;-89
2021/04/14 02:14:13;;;;;;;0.20;0.20;;;3.80;99.90;;;;;;5027197;28;20402;-89
2021/04/14 02:16:39;;;;;;;0.28;0.28;;;3.60;99.90;;;;;;5010098;28;20111;-89
2021/04/14 02:19:05;;;;;;;0.10;0.10;;;3.90;99.90;;;;;;5011778;28;20106;-90
2021/04/14 02:21:31;;;;;;;0.10;0.10;;;3.70;99.90;;;;;;5009931;28;20046;-89
2021/04/14 02:23:58;;;;;;;0.20;0.20;;;3.80;99.90;;;;;;5010181;28;20026;-90
2021/04/14 02:26:24;;;;;;;0.20;0.20;;;3.90;99.90;;;;;;5011909;28;20796;-90
2021/04/14 02:28:51;;;;;;;0.10;0.10;;;3.90;99.90;;;;;;5009998;28;20034;-90
2021/04/14 02:31:30;;;;;;;0.50;0.50;;;3.90;99.90;;;;;;5011927;28;20030;-89
2021/04/14 02:34:09;;;;;;;0.50;0.50;;;4.00;99.90;;;;;;5010322;28;20092;-89
2021/04/14 02:36:35;;;;;;;0.50;0.50;;;3.90;99.90;;;;;;5010478;28;20030;-89
2021/04/14 02:39:01;;;;;;;0.10;0.10;;;3.70;99.90;;;;;;5009158;28;20045;-90
2021/04/14 02:41:27;;;;;;;0.15;0.15;;;3.80;99.90;;;;;;5019337;28;20088;-90
2021/04/14 02:43:54;;;;;;;0.10;0.10;;;3.70;99.90;;;;;;5010979;28;20031;-91
2021/04/14 02:46:23;;;;;;;0.10;0.10;;;3.70;99.90;;;;;;5012211;28;20030;-91
2021/04/14 02:48:50;;;;;;;0.13;0.13;;;3.60;99.90;;;;;;5012960;28;20129;-91
2021/04/14 02:51:15;;;;;;;0.20;0.20;;;3.60;99.90;;;;;;4991665;28;20072;-90
2021/04/14 02:53:41;;;;;;;0.10;0.10;;;3.50;99.90;;;;;;5023290;28;20765;-90
2021/04/14 02:56:07;;;;;;;0.10;0.10;;;3.70;99.90;;;;;;5009868;28;20042;-90
2021/04/14 02:58:34;;;;;;;0.17;0.17;;;3.60;99.90;;;;;;5005355;28;20437;-89
2021/04/14 03:01:00;;;;;;;0.20;0.20;;;3.40;99.90;;;;;;5010876;28;20026;-90
2021/04/14 03:03:27;;;;;;;0.20;0.20;;;3.40;99.90;;;;;;5012075;28;20398;-89
2021/04/14 03:05:54;;;;;;;0.30;0.30;;;3.30;99.90;;;;;;5024709;28;20034;-89
2021/04/14 03:08:20;;;;;;;0.10;0.10;;;3.50;99.90;;;;;;4990198;28;20038;-88
2021/04/14 03:10:47;;;;;;;0.30;0.30;;;3.30;99.90;;;;;;4996519;28;20034;-89
2021/04/14 03:13:16;;;;;;;0.50;0.50;;;3.40;99.90;;;;;;4998170;28;21016;-89
2021/04/14 03:15:43;;;;;;;0.20;0.20;;;3.50;99.90;;;;;;5005283;28;20034;-89
2021/04/14 03:18:14;;;;;;;0.10;0.10;;;3.30;99.90;;;;;;5007516;28;20028;-90
2021/04/14 03:20:41;;;;;;;0.10;0.10;;;3.40;99.90;;;;;;5000579;28;20445;-91
2021/04/14 03:23:11;;;;;;;0.10;0.10;;;3.60;99.90;;;;;;5001479;28;20109;-90
2021/04/14 03:25:38;;;;;;;0.85;0.85;;;3.60;99.90;;;;;;5010272;28;20037;-89
2021/04/14 03:28:05;;;;;;;0.17;0.17;;;3.50;99.90;;;;;;5009440;28;20508;-90
2021/04/14 03:30:32;;;;;;;0.30;0.30;;;3.40;99.90;;;;;;5010047;28;20025;-90
2021/04/14 03:32:58;;;;;;;0.35;0.20;;;3.50;99.90;;;;;;4998409;28;20189;-89
2021/04/14 03:35:26;;;;;;;0.30;0.30;;;3.50;99.90;;;;;;5008595;28;20687;-90
2021/04/14 03:37:52;;;;;;;0.10;0.10;;;3.30;99.90;;;;;;4990944;28;20113;-91
2021/04/14 03:40:19;;;;;;;0.20;0.20;;;3.40;99.90;;;;;;4992453;28;20510;-92
2021/04/14 03:42:45;;;;;;;0.98;0.95;;;3.30;99.90;;;;;;5011350;28;20072;-88
2021/04/14 03:45:18;;;;;;;0.32;0.32;;;3.30;99.90;;;;;;4998478;28;20034;-87
2021/04/14 03:47:44;;;;;;;0.10;0.10;;;3.20;99.90;;;;;;4992296;28;20398;-89
2021/04/14 03:50:21;;;;;;;0.10;0.10;;;3.30;99.90;;;;;;5001918;28;20058;-89
2021/04/14 03:52:48;;;;;;;0.10;0.10;;;3.10;99.90;;;;;;5010929;28;20033;-90
2021/04/14 03:55:15;;;;;;;0.30;0.30;;;3.10;99.90;;;;;;5010191;28;20509;-90
2021/04/14 03:57:41;;;;;;;0.30;0.30;;;3.30;99.90;;;;;;5010806;28;20088;-90
2021/04/14 04:00:09;;;;;;;0.10;0.10;;;3.20;99.90;;;;;;5002095;28;20425;-91
2021/04/14 04:02:34;;;;;;;0.10;0.10;;;2.90;99.90;;;;;;4989593;28;20406;-90
2021/04/14 04:05:00;;;;;;;0.30;0.30;;;2.80;99.90;;;;;;4990790;28;20023;-89
2021/04/14 04:07:26;;;;;;;0.10;0.10;;;2.80;99.90;;;;;;4991043;28;20516;-89
2021/04/14 04:09:52;;;;;;;0.10;0.10;;;2.70;99.90;;;;;;5009654;28;20025;-90
2021/04/14 04:12:18;;;;;;;0.10;0.10;;;2.70;99.90;;;;;;5009984;28;20042;-90
2021/04/14 04:14:48;;;;;;;0.25;0.25;;;2.50;99.90;;;;;;5009407;28;20022;-89
2021/04/14 04:17:16;;;;;;;0.10;0.10;;;2.60;99.90;;;;;;5009821;28;20121;-90
2021/04/14 04:19:42;;;;;;;1.40;1.30;;;2.70;99.90;;;;;;5009307;28;20059;-90
2021/04/14 04:22:09;;;;;;;0.10;0.10;;;2.70;99.90;;;;;;5024471;28;20509;-91
2021/04/14 04:24:35;;;;;;;0.10;0.10;;;2.50;99.90;;;;;;5001791;28;20049;-91
2021/04/14 04:27:01;;;;;;;0.60;0.60;;;2.60;99.90;;;;;;4990165;28;20157;-89
2021/04/14 04:29:27;;;;;;;1.97;0.63;;;2.50;99.90;;;;;;4989593;28;20487;-90
2021/04/14 04:31:53;;;;;;;0.10;0.10;;;2.70;99.90;;;;;;4990048;28;20033;-90
2021/04/14 04:34:19;;;;;;;0.20;0.20;;;2.70;99.90;;;;;;4991911;28;20034;-90
2021/04/14 04:36:45;;;;;;;0.10;0.10;;;2.70;99.90;;;;;;5009294;28;20037;-90
2021/04/14 04:39:11;;;;;;;0.73;0.73;;;2.60;99.90;;;;;;5007214;28;20048;-90
2021/04/14 04:41:37;;;;;;;0.10;0.10;;;2.50;99.90;;;;;;5009142;28;20021;-91
2021/04/14 04:44:03;;;;;;;0.10;0.10;;;2.40;99.90;;;;;;5008516;28;20034;-91
2021/04/14 04:46:29;;;;;;;0.10;0.10;;;2.80;99.90;;;;;;5007167;28;20030;-90
2021/04/14 04:48:54;;;;;;;0.20;0.20;;;2.60;99.90;;;;;;4997728;28;20022;-91
2021/04/14 04:51:20;;;;;;;0.17;0.17;;;2.30;99.90;;;;;;5009309;28;20034;-91
2021/04/14 04:53:46;;;;;;;0.45;0.45;;;2.60;99.90;;;;;;5007398;28;20864;-90
2021/04/14 04:56:12;;;;;;;0.17;0.17;;;2.50;99.90;;;;;;5007636;28;20116;-91
2021/04/14 04:58:37;;;;;;;0.40;0.40;;;2.40;99.90;;;;;;5006979;28;20026;-90
2021/04/14 05:01:03;;;;;;;0.57;0.57;;;2.60;99.90;;;;;;5008094;28;20028;-91
2021/04/14 05:03:29;;;;;;;0.52;0.52;;;2.60;99.90;;;;;;5008714;28;20026;-91
2021/04/14 05:05:57;;;;;;;0.30;0.30;;;2.60;99.90;;;;;;5024230;28;20038;-91
2021/04/14 05:08:23;;;;;;;0.75;0.75;;;2.50;99.90;;;;;;5024272;28;20417;-91
2021/04/14 05:10:49;;;;;;;0.15;0.15;;;2.30;99.90;;;;;;5007255;28;20034;-91
2021/04/14 05:13:14;;;;;;;0.30;0.30;;;2.40;99.90;;;;;;5003173;28;20048;-88
2021/04/14 05:15:41;;;;;;;0.30;0.30;;;2.30;99.90;;;;;;5022606;28;20557;-90
2021/04/14 05:18:08;;;;;;;0.10;0.10;;;2.60;99.90;;;;;;5023540;28;20041;-90
2021/04/14 05:20:34;;;;;;;0.20;0.20;;;2.50;99.90;;;;;;5005986;28;20368;-90
2021/04/14 05:23:01;;;;;;;0.33;0.33;;;2.60;99.90;;;;;;4994893;28;20443;-91
2021/04/14 05:25:31;;;;;;;0.20;0.20;;;2.70;99.90;;;;;;5010935;28;20488;-90
2021/04/14 05:28:02;;;;;;;0.20;0.20;;;2.80;99.90;;;;;;5027323;28;20273;-91
2021/04/14 05:30:27;;;;;;;0.90;0.75;;;3.50;99.90;;;;;;5012467;28;20153;-89
2021/04/14 05:32:53;;;;;;;0.60;0.45;;;3.80;99.90;;;;;;4994385;28;20066;-88
2021/04/14 05:35:19;;;;;;;0.43;0.43;;;4.20;99.90;;;;;;4992759;28;20030;-88
2021/04/14 05:37:45;;;;;;;0.10;0.10;;;4.40;99.90;;;;;;5005294;28;20084;-88
2021/04/14 05:40:11;;;;;;;0.10;0.10;;;4.60;99.90;;;;;;5027592;28;20029;-88
2021/04/14 05:42:42;;;;;;;0.30;0.30;;;4.50;99.90;;;;;;5011708;28;20121;-88
2021/04/14 05:45:10;;;;;;;0.38;0.38;;;4.70;99.90;;;;;;5011968;28;20041;-89
2021/04/14 05:47:36;;;;;;;0.10;0.10;;;4.10;99.90;;;;;;5012071;28;20037;-89
2021/04/14 05:50:05;;;;;;;0.20;0.20;;;3.70;99.90;;;;;;5011239;28;20133;-88
2021/04/14 05:52:30;;;;;;;0.30;0.30;;;3.80;99.90;;;;;;5011169;28;20037;-88
2021/04/14 05:54:56;;;;;;;0.20;0.20;;;3.80;99.90;;;;;;5011838;28;20030;-88
2021/04/14 05:57:22;;;;;;;0.85;0.85;;;3.70;99.90;;;;;;5011670;28;20026;-87
2021/04/14 05:59:48;;;;;;;0.10;0.10;;;3.70;99.90;;;;;;5011858;28;20125;-87
2021/04/14 06:02:14;;;;;;;0.20;0.20;;;3.80;99.90;;;;;;5010159;28;20706;-87
2021/04/14 06:04:40;;;;;;;0.10;0.10;;;4.40;99.90;;;;;;5005234;28;20030;-87
2021/04/14 06:07:06;;;;;;;0.10;0.10;;;4.90;99.90;;;;;;4991907;28;20031;-89
2021/04/14 06:09:31;;;;;;;0.15;0.15;;;4.50;99.90;;;;;;4992536;28;20406;-89
2021/04/14 06:11:57;;;;;;;0.30;0.30;;;4.50;99.90;;;;;;5007450;28;20026;-89
2021/04/14 06:14:23;;;;;;;0.10;0.10;;;4.50;99.90;;;;;;4992187;28;20034;-89
2021/04/14 06:16:49;;;;;;;0.10;0.10;;;4.60;99.90;;;;;;5023701;28;20076;-89
2021/04/14 06:19:15;;;;;;;0.25;0.25;;;4.60;99.90;;;;;;5007952;28;20034;-87
2021/04/14 06:21:42;;;;;;;0.17;0.17;;;5.30;99.90;;;;;;4991754;28;20042;-88
2021/04/14 06:24:09;;;;;;;0.10;0.10;;;6.40;99.90;;;;;;4991940;28;20300;-88
2021/04/14 06:26:49;;;;;;;0.10;0.10;;;7.20;99.90;;;;;;5002282;28;20099;-90
2021/04/14 06:29:15;;;;;;;0.20;0.20;;;7.50;99.90;;;;;;4997987;28;20042;-91
2021/04/14 06:31:42;;;;;;;0.10;0.10;;;8.30;99.90;;;;;;5012522;28;20037;-91
2021/04/14 06:34:23;;;;;;;0.38;0.38;;;8.70;99.90;;;;;;5008285;28;20132;-85
2021/04/14 06:36:53;;;;;;;0.00;0.00;;;8.30;99.90;;;;;;5003913;28;20514;-87
2021/04/14 06:39:22;;;;;;;0.00;0.00;;;8.50;99.90;;;;;;5001470;28;20030;-87
2021/04/14 06:42:20;;;;;;;0.03;0.03;;;8.50;99.90;;;;;;5010528;28;20037;-87
2021/04/14 06:45:11;;;;;;;0.20;0.20;;;8.50;99.90;;;;;;5002166;28;20028;-88
2021/04/14 06:47:50;;;;;;;0.30;0.30;;;8.30;99.90;;;;;;4993175;28;20030;-86
2021/04/14 06:50:27;;;;;;;0.13;0.13;;;8.10;99.90;;;;;;5004376;28;20393;-86
2021/04/14 06:53:05;;;;;;;0.30;0.20;;;8.30;99.90;;;;;;4994893;28;20038;-87
2021/04/14 06:55:40;;;;;;;0.30;0.30;;;7.40;99.90;;;;;;4994531;28;20018;-85
2021/04/14 06:58:10;;;;;;;0.20;0.20;;;7.10;99.90;;;;;;5008328;28;20042;-86
2021/04/14 07:00:42;;;;;;;0.10;0.10;;;8.20;99.90;;;;;;4998022;28;20435;-88
2021/04/14 07:03:33;;;;;;;0.13;0.13;;;8.70;99.90;;;;;;4991003;28;20829;-86
2021/04/14 07:06:08;;;;;;;0.40;0.40;;;9.00;99.90;;;;;;5003935;28;20041;-86
2021/04/14 07:08:42;;;;;;;0.17;0.17;;;10.00;99.90;;;;;;5001842;28;20773;-85
2021/04/14 07:11:19;;;;;;;0.20;0.20;;;9.60;99.90;;;;;;5012076;28;20514;-87
2021/04/14 07:13:48;;;;;;;0.55;0.20;;;8.80;99.90;;;;;;5003830;28;20703;-87
2021/04/14 07:16:40;;;;;;;0.00;0.00;;;8.60;99.90;;;;;;4996696;28;20077;-87
2021/04/14 07:19:25;;;;;;;0.10;0.10;;;8.30;99.90;;;;;;4999135;28;20486;-87
2021/04/14 07:22:01;;;;;;;0.40;0.40;;;9.00;99.90;;;;;;5004055;28;20042;-88
2021/04/14 07:24:50;;;;;;;3.42;2.00;;;10.30;99.90;;;;;;5003506;28;20080;-87
2021/04/14 07:27:43;;;;;;;0.47;0.45;;;10.60;99.90;;;;;;4999397;28;20378;-87
2021/04/14 07:30:35;;;;;;;0.20;0.20;;;11.70;99.60;;;;;;5000388;28;20040;-88
2021/04/14 07:33:40;;;;;;;0.00;0.00;;;11.80;98.00;;;;;;5004795;28;20714;-88
2021/04/14 07:36:34;;;;;;;0.20;0.20;;;12.00;99.90;;;;;;4995668;28;20046;-89
2021/04/14 07:39:40;;;;;;;0.38;0.38;;;12.70;99.90;;;;;;5004054;28;20497;-89
2021/04/14 07:42:06;;;;;;;0.47;0.47;;;11.80;99.10;;;;;;4999417;28;20030;-89
2021/04/14 07:44:53;;;;;;;0.10;0.10;;;11.90;97.90;;;;;;5022106;28;20067;-88
2021/04/14 07:47:21;;;;;;;0.20;0.20;;;12.20;97.70;;;;;;5001488;28;20048;-89
2021/04/14 07:49:46;;;;;;;;;;;11.60;98.80;;;;;;5003955;28;20072;-88
2021/04/14 07:52:22;;;;;;;1.88;1.17;;;12.00;98.00;;;;;;5002569;28;19956;-89
2021/04/14 07:54:51;;;;;;;0.63;0.63;;;12.60;97.50;;;;;;5001003;28;20053;-86
2021/04/14 07:57:39;;;;;;;0.10;0.10;;;12.80;98.10;;;;;;5019099;28;20710;-87
2021/04/14 08:00:14;;;;;;;0.00;0.00;;;13.30;96.00;;;;;;5003844;28;20033;-86
2021/04/14 08:02:40;;;;;;;0.25;0.25;;;12.80;97.10;;;;;;4996225;28;20041;-87
2021/04/14 08:05:18;;;;;;;1.45;0.63;;;12.70;97.30;;;;;;5006264;28;20101;-88
2021/04/14 08:07:48;;;;;;;0.00;0.00;;;13.50;95.50;;;;;;5007333;28;20120;-87
2021/04/14 08:10:26;;;;;;;0.20;0.20;;;13.90;94.80;;;;;;5007521;28;20061;-90
2021/04/14 08:13:04;;;;;;;0.20;0.20;;;13.80;95.30;;;;;;5008008;28;20036;-88
2021/04/14 08:15:46;;;;;;;0.52;0.52;;;14.40;93.90;;;;;;4996957;28;20106;-91
2021/04/14 08:18:19;;;;;;;0.10;0.10;;;15.00;94.10;;;;;;5002860;28;20092;-89
2021/04/14 08:21:05;;;;;;;0.20;0.20;;;15.50;93.00;;;;;;5001182;28;20046;-88
2021/04/14 08:23:32;;;;;;;0.15;0.15;;;15.60;98.30;;;;;;5002392;28;20719;-87
2021/04/14 08:26:01;;;;;;;0.20;0.20;;;15.90;91.70;;;;;;5001834;28;20113;-88
2021/04/14 08:28:56;;;;;;;0.10;0.10;;;16.40;96.90;;;;;;5004907;28;20487;-88
2021/04/14 08:31:45;;;;;;;0.20;0.20;;;16.30;90.20;;;;;;5002020;28;20049;-88
2021/04/14 08:34:33;;;;;;;0.30;0.30;;;16.20;90.30;;;;;;5002336;28;20437;-87
2021/04/14 08:37:19;;;;;;;0.20;0.20;;;16.40;90.30;;;;;;5019156;28;20034;-87
2021/04/14 08:39:56;;;;;;;0.55;0.55;;;16.30;88.30;;;;;;5000790;28;20037;-88
2021/04/14 08:42:34;;;;;;;0.40;0.40;;;16.20;87.30;;;;;;5001772;28;20030;-86
2021/04/14 08:45:19;;;;;;;0.20;0.20;;;15.20;86.90;;;;;;5000957;28;20026;-86
2021/04/14 08:48:02;;;;;;;0.10;0.10;;;16.50;88.20;;;;;;4998841;28;20605;-86
2021/04/14 08:50:34;;;;;;;0.20;0.20;;;17.20;89.90;;;;;;5002033;28;20026;-86
2021/04/14 08:53:10;;;;;;;0.10;0.10;;;17.10;86.70;;;;;;5017816;28;20088;-86
2021/04/14 08:55:37;;;;;;;0.10;0.10;;;17.00;80.10;;;;;;5004448;28;20044;-88
2021/04/14 08:58:06;;;;;;;0.17;0.17;;;18.80;79.20;;;;;;5000419;28;20030;-84
2021/04/14 09:00:33;;;;;;;0.10;0.10;;;17.20;83.90;;;;;;5006489;28;20117;-86
2021/04/14 09:03:03;;;;;;;0.10;0.10;;;17.50;83.40;;;;;;5001773;28;20022;-89
2021/04/14 09:05:30;;;;;;;0.20;0.20;;;18.10;92.70;;;;;;5006623;28;20025;-87
2021/04/14 09:08:00;;;;;;;0.20;0.20;;;18.00;81.10;;;;;;5004596;28;20017;-88
2021/04/14 09:10:49;;;;;;;0.20;0.20;;;17.30;77.80;;;;;;5022101;28;20034;-86
2021/04/14 09:13:15;;;;;;;0.00;0.00;;;17.50;79.50;;;;;;5004403;28;20021;-88
2021/04/14 09:16:10;;;;;;;0.13;0.13;;;18.10;74.70;;;;;;4998151;28;20034;-87
2021/04/14 09:18:47;;;;;;;0.43;0.43;;;18.60;79.60;;;;;;5003773;28;20494;-87
2021/04/14 09:21:23;;;;;;;0.25;0.25;;;18.00;74.90;;;;;;4986023;28;20057;-87
2021/04/14 09:24:07;;;;;;;0.17;0.17;;;19.10;73.70;;;;;;5001146;28;20535;-86
2021/04/14 09:26:39;;;;;;;0.47;0.47;;;19.30;73.90;;;;;;4998438;28;20034;-88
2021/04/14 09:29:48;;;;;;;0.10;0.10;;;20.80;62.20;;;;;;5012135;28;21560;-89
2021/04/14 09:32:20;;;;;;;0.28;0.28;;;22.70;59.40;;;;;;4920127;29;20083;-90
2021/04/14 09:34:49;;;;;;;0.98;0.98;;;20.70;65.80;;;;;;4921551;29;20131;-86
2021/04/14 09:37:21;;;;;;;0.20;0.20;;;21.30;64.60;;;;;;4918386;29;20453;-87
2021/04/14 09:39:53;;;;;;;0.05;0.05;;;22.40;56.40;;;;;;4920247;29;20518;-86
2021/04/14 09:42:34;;;;;;;1.30;0.75;;;20.50;64.70;;;;;;4926999;29;20591;-88
2021/04/14 09:45:14;;;;;;;0.10;0.10;;;21.60;63.20;;;;;;4910329;29;20693;-89
2021/04/14 09:47:40;;;;;;;0.20;0.10;;;21.30;59.10;;;;;;4926889;29;20046;-87
2021/04/14 09:50:28;;;;;;;0.00;0.00;;;21.70;59.20;;;;;;4925889;29;20838;-89
2021/04/14 09:53:28;;;;;;;0.13;0.13;;;20.90;64.00;;;;;;4906282;29;20039;-87
2021/04/14 09:56:05;;;;;;;0.82;0.80;;;19.60;66.40;;;;;;4923104;29;20055;-86
2021/04/14 09:59:10;;;;;;;0.15;0.15;;;19.40;58.90;;;;;;4906259;29;20795;-87
2021/04/14 10:01:41;;;;;;;0.10;0.10;;;22.40;59.60;;;;;;4920996;29;20046;-87
2021/04/14 10:04:21;;;;;;;0.43;0.40;;;20.00;66.30;;;;;;4904475;29;20914;-87
2021/04/14 10:07:06;;;;;;;0.10;0.10;;;18.00;68.50;;;;;;4921007;29;20067;-86
2021/04/14 10:09:37;;;;;;;0.10;0.10;;;18.60;68.40;;;;;;4993178;28;20053;-89
2021/04/14 10:12:16;;;;;;;0.10;0.10;;;18.80;66.80;;;;;;4995674;28;20038;-86
2021/04/14 10:14:50;;;;;;;0.38;0.38;;;18.20;69.90;;;;;;4987288;28;20125;-88
2021/04/14 10:17:41;;;;;;;0.30;0.30;;;19.10;64.10;;;;;;4998918;28;20045;-88
2021/04/14 10:20:26;;;;;;;0.32;0.32;;;17.80;61.30;;;;;;5001569;28;20072;-88
2021/04/14 10:22:55;;;;;;;0.20;0.20;;;20.50;56.90;;;;;;5004938;28;20058;-87
2021/04/14 10:25:32;;;;;;;0.20;0.20;;;20.50;61.90;;;;;;4998862;28;20441;-86
2021/04/14 10:28:11;;;;;;;0.10;0.10;;;21.20;59.40;;;;;;5002493;28;20047;-87
2021/04/14 10:30:41;;;;;;;0.22;0.22;;;22.70;55.20;;;;;;5008558;28;20036;-90
2021/04/14 10:33:28;;;;;;;0.20;0.20;;;18.10;62.00;;;;;;5010006;28;20026;-88
2021/04/14 10:35:55;;;;;;;0.30;0.30;;;22.10;56.60;;;;;;4998970;28;20049;-91
2021/04/14 10:38:33;;;;;;;0.10;0.10;;;21.70;58.80;;;;;;4997548;28;20030;-89
2021/04/14 10:41:00;;;;;;;0.13;0.13;;;19.90;57.40;;;;;;5004706;28;20114;-88
2021/04/14 10:43:28;;;;;;;0.10;0.10;;;21.70;51.00;;;;;;5011150;28;20108;-89
2021/04/14 10:46:21;;;;;;;0.08;0.08;;;19.50;62.30;;;;;;4992345;28;20069;-90
2021/04/14 10:48:49;;;;;;;0.75;0.75;;;24.40;47.40;;;;;;5005022;28;20061;-89
2021/04/14 10:51:27;;;;;;;0.20;0.20;;;23.70;50.40;;;;;;4992393;28;20037;-88
2021/04/14 10:53:56;;;;;;;0.50;0.50;;;22.80;51.90;;;;;;5005394;28;20037;-90
2021/04/14 10:56:31;;;;;;;0.20;0.20;;;23.90;50.20;;;;;;5006928;28;20038;-89
2021/04/14 10:59:06;;;;;;;0.17;0.17;;;21.50;55.20;;;;;;5001741;28;20022;-89
2021/04/14 11:01:55;;;;;;;0.22;0.22;;;20.70;55.70;;;;;;4999934;28;20026;-89
2021/04/14 11:04:35;;;;;;;0.10;0.10;;;20.80;55.80;;;;;;5005292;28;20022;-85
2021/04/14 11:07:21;;;;;;;0.55;0.55;;;19.70;55.00;;;;;;5003357;28;20033;-86
2021/04/14 11:09:53;;;;;;;0.10;0.10;;;18.40;62.50;;;;;;5006347;28;20034;-87
2021/04/14 11:12:26;;;;;;;0.20;0.20;;;19.70;59.60;;;;;;5002975;28;20053;-86
2021/04/14 11:15:03;;;;;;;0.08;0.08;;;21.60;55.40;;;;;;5008121;28;20102;-87
2021/04/14 11:17:34;;;;;;;0.32;0.30;;;21.70;55.60;;;;;;5001302;28;20148;-87
2021/04/14 11:20:10;;;;;;;0.68;0.68;;;20.40;56.90;;;;;;4999363;28;20038;-87
2021/04/14 11:22:49;;;;;;;0.10;0.10;;;19.70;59.70;;;;;;5003457;28;20503;-88
2021/04/14 11:25:30;;;;;;;0.08;0.08;;;19.00;60.60;;;;;;5002051;28;20383;-88
2021/04/14 11:28:13;;;;;;;0.10;0.10;;;19.10;60.10;;;;;;4995791;28;20030;-88
2021/04/14 11:30:54;;;;;;;1.10;0.98;;;19.30;58.90;;;;;;5002436;28;20513;-89
2021/04/14 11:33:42;;;;;;;0.65;0.65;;;22.30;53.30;;;;;;5006284;28;20034;-91
2021/04/14 11:36:30;;;;;;;0.28;0.25;;;18.30;58.50;;;;;;5000186;28;20033;-84
2021/04/14 11:39:13;;;;;;;0.15;0.15;;;14.20;66.40;;;;;;5002245;28;20045;-85
2021/04/14 11:41:44;;;;;;;0.45;0.45;;;14.00;66.50;;;;;;4999513;28;20133;-84
2021/04/14 11:44:36;;;;;;;0.10;0.10;;;13.80;66.50;;;;;;4994946;28;20033;-86
2021/04/14 11:47:05;;;;;;;0.20;0.20;;;13.80;66.70;;;;;;5001880;28;20445;-84
2021/04/14 11:49:36;;;;;;;0.75;0.73;;;13.30;68.30;;;;;;5021195;28;20379;-85
2021/04/14 11:52:36;;;;;;;0.10;0.10;;;13.90;66.70;;;;;;5008118;28;20032;-85
2021/04/14 11:55:18;;;;;;;0.10;0.10;;;13.40;68.00;;;;;;4967867;28;20217;-85
2021/04/14 11:57:45;;;;;;;0.10;0.10;;;13.70;67.30;;;;;;4967512;28;20050;-85
2021/04/14 12:00:22;;;;;;;0.20;0.20;;;13.70;67.30;;;;;;4967515;28;20141;-85
2021/04/14 12:02:51;;;;;;;0.05;0.05;;;13.90;66.90;;;;;;4967309;28;20042;-85
2021/04/14 12:05:17;;;;;;;0.00;0.00;;;13.60;67.00;;;;;;4967754;28;20039;-86
2021/04/14 12:07:44;;;;;;;0.10;0.10;;;13.70;67.20;;;;;;4967520;28;20031;-87
2021/04/14 12:10:11;;;;;;;0.10;0.10;;;13.40;68.70;;;;;;4968066;28;20204;-85
2021/04/14 12:12:38;;;;;;;0.00;0.00;;;13.50;68.10;;;;;;4981827;28;20034;-86
2021/04/14 12:15:08;;;;;;;0.03;0.03;;;13.60;68.00;;;;;;4986751;28;20030;-86
2021/04/14 12:17:35;;;;;;;0.10;0.10;;;13.90;66.20;;;;;;4986683;28;20533;-86
2021/04/14 12:20:02;;;;;;;1.17;0.75;;;14.00;65.80;;;;;;4986475;28;20506;-85
2021/04/14 12:22:29;;;;;;;0.75;0.47;;;13.90;66.40;;;;;;4986695;28;20073;-85
2021/04/14 12:24:56;;;;;;;0.10;0.10;;;14.20;66.00;;;;;;4986285;28;20042;-86
2021/04/14 12:27:23;;;;;;;0.03;0.03;;;14.10;65.90;;;;;;4986706;28;20038;-86
2021/04/14 12:29:49;;;;;;;;;;;13.80;66.90;;;;;;4991266;28;20045;-87
2021/04/14 12:32:16;;;;;;;0.10;0.10;;;13.50;67.00;;;;;;5008535;28;19918;-87
2021/04/14 12:34:42;;;;;;;0.52;0.40;;;13.50;66.60;;;;;;4994767;28;20057;-85
2021/04/14 12:37:08;;;;;;;0.10;0.10;;;14.00;67.10;;;;;;4989086;28;20467;-85
2021/04/14 12:39:34;;;;;;;0.22;0.22;;;13.80;66.20;;;;;;4989352;28;20057;-86
2021/04/14 12:42:01;;;;;;;0.20;0.20;;;14.00;65.90;;;;;;5004217;28;20612;-86
2021/04/14 12:44:28;;;;;;;0.00;0.00;;;13.90;66.80;;;;;;4989558;28;20029;-86
2021/04/14 12:46:56;;;;;;;0.10;0.10;;;13.60;65.30;;;;;;5004795;28;20041;-86
2021/04/14 12:49:23;;;;;;;0.10;0.10;;;13.70;64.60;;;;;;4989266;28;20027;-86
2021/04/14 12:51:54;;;;;;;0.20;0.20;;;13.80;64.70;;;;;;4989547;28;20038;-86
2021/04/14 12:54:29;;;;;;;0.10;0.10;;;13.50;65.70;;;;;;5004695;28;20084;-86
2021/04/14 12:57:06;;;;;;;0.38;0.30;;;13.80;64.80;;;;;;5009092;28;20026;-86
2021/04/14 12:59:46;;;;;;;0.10;0.10;;;13.60;66.50;;;;;;5009000;28;20080;-85
2021/04/14 13:02:27;;;;;;;0.00;0.00;;;13.50;65.10;;;;;;5008909;28;20056;-85
2021/04/14 13:05:06;;;;;;;1.17;0.25;;;13.40;64.20;;;;;;5009091;28;20533;-86
2021/04/14 13:07:50;;;;;;;0.03;0.03;;;13.60;65.90;;;;;;5008861;28;20030;-85
2021/04/14 13:10:21;;;;;;;0.30;0.30;;;13.90;65.20;;;;;;5008838;28;20147;-85
2021/04/14 13:12:48;;;;;;;0.22;0.22;;;13.70;64.40;;;;;;5007619;28;20030;-86
2021/04/14 13:15:20;;;;;;;0.65;0.50;;;13.60;64.70;;;;;;5008751;28;20025;-86
2021/04/14 13:17:52;;;;;;;0.10;0.10;;;13.60;64.80;;;;;;5008895;28;20550;-85